ADDS METAR Data INFO
IDs: Format: Raw Decoded Include TAF

Data at: 2049 UTC 24 Jun 2018

PFNO 241956Z AUTO 30014KT 10SM CLR 13/03 A3004 RMK AO2 SLP173 T01280033
PFNO 241856Z AUTO 33011KT 10SM CLR 12/03 A3005 RMK AO2 SLP175 T01220033
PFNO 241756Z AUTO 30014KT 10SM CLR 11/04 A3006 RMK AO2 SLP179 T01110039 10111 20067 56005
PFNO 241656Z AUTO 30013KT 10SM CLR 11/04 A3007 RMK AO2 SLP182 T01060039
PFNO 241556Z AUTO 31010KT 10SM CLR 09/04 A3007 RMK AO2 SLP180 T00940039
PFNO 241456Z AUTO 31007KT 10SM CLR 08/05 A3008 RMK AO2 SLP185 T00780050 58003
PFNO 241356Z AUTO 29007KT 10SM CLR 07/04 A3008 RMK AO2 SLP187 T00670039
PFNO 241256Z AUTO 28005KT 10SM CLR 07/04 A3008 RMK AO2 SLP186 T00720044
PFNO 241156Z AUTO 27005KT 10SM FEW055 07/05 A3008 RMK AO2 SLP188 70006 T00720050 10117 20072 55000
PFNO 241056Z AUTO 30007KT 10SM OVC055 08/06 A3008 RMK AO2 SLP187 T00830056
PFNO 240956Z AUTO 32007KT 10SM OVC055 09/06 A3008 RMK AO2 SLP187 T00940056
PFNO 240856Z AUTO 30009KT 10SM OVC060 10/07 A3008 RMK AO2 SLP188 T01000067 401390094 52001
PFNO 240756Z AUTO 31012KT 10SM SCT030 OVC060 11/07 A3008 RMK AO2 SLP188 T01060067
PFNO 240656Z AUTO 29012KT 10SM OVC060 12/07 A3008 RMK AO2 SLP187 T01170067
PFNO 240556Z AUTO 30012KT 10SM FEW020 OVC060 12/07 A3008 RMK AO2 SLP188 60001 T01170067 10139 20111 58002
PFNO 240456Z AUTO 29010KT 10SM FEW025 BKN060 12/07 A3009 RMK AO2 SLP189 T01170072
PFNO 240428Z AUTO 30012KT 10SM BKN027 OVC032 12/07 A3009 RMK AO2
PFNO 240356Z AUTO 29010KT 10SM OVC060 13/07 A3009 RMK AO2 SLP188 T01330072
PFNO 240256Z AUTO 32009KT 10SM FEW028 OVC060 13/07 A3009 RMK AO2 SLP188 60001 T01330067 58002
PFNO 240156Z AUTO 30010KT 10SM FEW037 OVC060 13/07 A3010 RMK AO2 RAE14 SLP191 P0000 T01280067
PFNO 240137Z AUTO 30008KT 10SM SCT026 BKN037 OVC055 13/07 A3010 RMK AO2 RAE14 P0000
PFNO 240111Z AUTO 30008KT 10SM -RA BKN022 BKN027 OVC041 12/08 A3010 RMK AO2 P0000
PFNO 240056Z AUTO 28009KT 9SM -RA FEW026 BKN034 OVC050 11/08 A3010 RMK AO2 RAB19 SLP195 P0001 T01110078
PFNO 240039Z AUTO 24009KT 5SM -RA FEW023 BKN038 OVC055 11/08 A3011 RMK AO2 RAB19 P0001
PFNO 240032Z AUTO 24011KT 5SM -RA BKN023 BKN038 OVC060 11/08 A3011 RMK AO2 RAB19 P0000
PFNO 232356Z AUTO 28008KT 10SM FEW021 OVC060 13/07 A3010 RMK AO2 SLP191 60003 T01280067 10128 20106 58000
PFNO 232256Z AUTO 31012KT 10SM FEW020 OVC050 12/08 A3010 RMK AO2 SLP192 T01220083
PFNO 232156Z AUTO 29004KT 9SM FEW036 OVC048 11/08 A3010 RMK AO2 RAE39 SLP193 P0000 T01110078
PFNO 232056Z AUTO 28006KT 7SM -RA FEW009 BKN037 OVC047 11/08 A3010 RMK AO2 SLP192 P0003 60003 T01060083 53006
PFNO 231956Z AUTO 18005KT 6SM -RA BR BKN039 OVC046 11/09 A3009 RMK AO2 RAB22 SLP189 P0000 T01060089
PFNO 231856Z AUTO 25004KT 10SM OVC035 11/08 A3008 RMK AO2 SLP187 T01110078
PFNO 231828Z AUTO 30006KT 10SM SCT028 OVC035 11/08 A3008 RMK AO2
PFNO 231756Z AUTO 31007KT 10SM BKN028 OVC050 11/08 A3008 RMK AO2 RAE30 SLP185 P0001 60002 T01060078 10106 20094 51006
PFNO 231748Z AUTO 31008KT 10SM BKN028 OVC050 10/08 A3007 RMK AO2 RAE30 P0001
PFNO 231714Z AUTO 28006KT 6SM -RA BR SCT029 BKN033 OVC045 09/08 A3008 RMK AO2 P0001
PFNO 231656Z AUTO 30006KT 4SM -RA BR OVC027 09/08 A3008 RMK AO2 RAE10B39 SLP184 P0001 T00940083
PFNO 231556Z AUTO 30008KT 7SM -RA OVC027 10/08 A3007 RMK AO2 RAB55 SLP183 P0000 T01000078
PFNO 231523Z AUTO 30009KT 10SM SCT012 BKN027 OVC038 10/08 A3006 RMK AO2
PFNO 231514Z AUTO 29009KT 10SM SCT025 OVC038 10/08 A3006 RMK AO2
PFNO 231456Z AUTO 28009KT 10SM OVC022 10/08 A3006 RMK AO2 SLP179 T01000083 52012
PFNO 231443Z AUTO 28008KT 10SM BKN022 OVC033 10/08 A3006 RMK AO2
PFNO 231356Z AUTO 27006KT 10SM FEW026 OVC031 10/08 A3005 RMK AO2 SLP175 T01000083
PFNO 231256Z AUTO 28008KT 10SM BKN031 OVC080 10/08 A3004 RMK AO2 SLP171 T01000083
PFNO 231156Z AUTO 29008KT 10SM FEW008 OVC070 10/08 A3003 RMK AO2 SLP167 60000 70019 T01000083 10122 20100 51008
PFNO 231153Z AUTO 28007KT 10SM FEW008 OVC070 10/09 A3002 RMK AO2
PFNO 231130Z AUTO 30009KT 10SM OVC008 10/09 A3002 RMK AO2
PFNO 231106Z AUTO 30008KT 10SM BKN010 BKN015 OVC065 11/09 A3001 RMK AO2
PFNO 231056Z AUTO 30010KT 10SM SCT010 BKN015 OVC065 11/09 A3001 RMK AO2 SLP163 T01060089
PFNO 231042Z AUTO 30010KT 10SM SCT008 BKN015 OVC065 11/09 A3001 RMK AO2
PFNO 231012Z AUTO 31010KT 10SM OVC008 11/09 A3000 RMK AO2
PFNO 230956Z AUTO 31009KT 10SM OVC010 11/09 A3000 RMK AO2 RAB04E28 CIG 008V015 SLP159 P0000 T01110094
PFNO 230919Z AUTO 29005KT 10SM -RA BKN012 OVC049 11/10 A2999 RMK AO2 RAB04 P0000
PFNO 230856Z AUTO 30007KT 10SM BKN015 OVC047 12/09 A2999 RMK AO2 RAE09 SLP153 P0000 60000 T01170094 401890117 53011